sensor_id;sensor_type;location;lat;lon;timestamp;P1;durP1;ratioP1;P2;durP2;ratioP2
10088;SDS011;51898;49.864;8.550;2022-09-11T00:02:28;6.07;;;5.00;;
10088;SDS011;51898;49.864;8.550;2022-09-11T00:05:30;6.13;;;4.80;;
10088;SDS011;51898;49.864;8.550;2022-09-11T00:08:31;6.87;;;5.00;;
10088;SDS011;51898;49.864;8.550;2022-09-11T00:11:35;5.57;;;5.07;;
10088;SDS011;51898;49.864;8.550;2022-09-11T00:14:40;5.33;;;4.83;;
10088;SDS011;51898;49.864;8.550;2022-09-11T00:17:42;7.37;;;5.57;;
10088;SDS011;51898;49.864;8.550;2022-09-11T00:20:48;8.43;;;5.87;;
10088;SDS011;51898;49.864;8.550;2022-09-11T00:23:51;5.63;;;5.13;;
10088;SDS011;51898;49.864;8.550;2022-09-11T00:26:53;5.97;;;5.37;;
10088;SDS011;51898;49.864;8.550;2022-09-11T00:29:55;5.87;;;4.90;;
10088;SDS011;51898;49.864;8.550;2022-09-11T00:32:56;6.40;;;5.37;;
10088;SDS011;51898;49.864;8.550;2022-09-11T00:35:59;6.20;;;5.67;;
10088;SDS011;51898;49.864;8.550;2022-09-11T00:39:03;7.10;;;5.77;;
10088;SDS011;51898;49.864;8.550;2022-09-11T00:42:05;6.60;;;6.00;;
10088;SDS011;51898;49.864;8.550;2022-09-11T00:45:15;6.97;;;6.10;;
10088;SDS011;51898;49.864;8.550;2022-09-11T00:48:22;7.30;;;6.57;;
10088;SDS011;51898;49.864;8.550;2022-09-11T00:51:29;7.07;;;6.47;;
10088;SDS011;51898;49.864;8.550;2022-09-11T00:54:34;7.10;;;6.40;;
10088;SDS011;51898;49.864;8.550;2022-09-11T00:57:43;7.13;;;6.10;;
10088;SDS011;51898;49.864;8.550;2022-09-11T01:04:04;8.23;;;6.33;;
10088;SDS011;51898;49.864;8.550;2022-09-11T01:07:09;7.77;;;6.97;;
10088;SDS011;51898;49.864;8.550;2022-09-11T01:10:13;10.43;;;7.33;;
10088;SDS011;51898;49.864;8.550;2022-09-11T01:16:52;11.17;;;7.70;;
10088;SDS011;51898;49.864;8.550;2022-09-11T01:20:16;8.90;;;7.90;;
10088;SDS011;51898;49.864;8.550;2022-09-11T01:23:30;8.30;;;7.50;;
10088;SDS011;51898;49.864;8.550;2022-09-11T01:27:07;9.00;;;8.10;;
10088;SDS011;51898;49.864;8.550;2022-09-11T01:30:34;10.40;;;9.30;;
10088;SDS011;51898;49.864;8.550;2022-09-11T01:33:44;9.80;;;8.73;;
10088;SDS011;51898;49.864;8.550;2022-09-11T01:36:52;10.97;;;9.87;;
10088;SDS011;51898;49.864;8.550;2022-09-11T01:40:02;10.33;;;9.23;;
10088;SDS011;51898;49.864;8.550;2022-09-11T01:43:12;11.83;;;9.43;;
10088;SDS011;51898;49.864;8.550;2022-09-11T01:46:20;12.03;;;9.53;;
10088;SDS011;51898;49.864;8.550;2022-09-11T01:49:34;9.93;;;8.80;;
10088;SDS011;51898;49.864;8.550;2022-09-11T01:52:45;10.90;;;9.37;;
10088;SDS011;51898;49.864;8.550;2022-09-11T01:56:01;10.93;;;9.73;;
10088;SDS011;51898;49.864;8.550;2022-09-11T01:59:10;12.90;;;10.40;;
10088;SDS011;51898;49.864;8.550;2022-09-11T02:02:17;12.07;;;10.77;;
10088;SDS011;51898;49.864;8.550;2022-09-11T02:05:27;12.63;;;11.33;;
10088;SDS011;51898;49.864;8.550;2022-09-11T02:08:43;12.90;;;10.77;;
10088;SDS011;51898;49.864;8.550;2022-09-11T02:11:48;14.50;;;11.70;;
10088;SDS011;51898;49.864;8.550;2022-09-11T02:14:54;15.80;;;12.10;;
10088;SDS011;51898;49.864;8.550;2022-09-11T02:17:58;11.93;;;10.40;;
10088;SDS011;51898;49.864;8.550;2022-09-11T02:21:03;14.50;;;11.93;;
10088;SDS011;51898;49.864;8.550;2022-09-11T02:24:05;16.03;;;12.20;;
10088;SDS011;51898;49.864;8.550;2022-09-11T02:27:07;15.70;;;13.27;;
10088;SDS011;51898;49.864;8.550;2022-09-11T02:30:12;13.83;;;12.03;;
10088;SDS011;51898;49.864;8.550;2022-09-11T02:33:25;15.77;;;12.60;;
10088;SDS011;51898;49.864;8.550;2022-09-11T02:36:45;15.20;;;11.60;;
10088;SDS011;51898;49.864;8.550;2022-09-11T02:43:40;14.97;;;12.33;;
10088;SDS011;51898;49.864;8.550;2022-09-11T02:47:29;16.80;;;11.83;;
10088;SDS011;51898;49.864;8.550;2022-09-11T02:57:24;17.67;;;13.20;;
10088;SDS011;51898;49.864;8.550;2022-09-11T03:00:34;17.03;;;15.23;;
10088;SDS011;51898;49.864;8.550;2022-09-11T03:03:39;16.73;;;14.83;;
10088;SDS011;51898;49.864;8.550;2022-09-11T03:06:46;19.57;;;14.90;;
10088;SDS011;51898;49.864;8.550;2022-09-11T03:09:51;16.83;;;13.40;;
10088;SDS011;51898;49.864;8.550;2022-09-11T03:12:53;17.77;;;14.20;;
10088;SDS011;51898;49.864;8.550;2022-09-11T03:15:55;20.27;;;16.13;;
10088;SDS011;51898;49.864;8.550;2022-09-11T03:18:56;22.53;;;15.90;;
10088;SDS011;51898;49.864;8.550;2022-09-11T03:21:58;19.23;;;17.10;;
10088;SDS011;51898;49.864;8.550;2022-09-11T03:25:00;21.83;;;15.90;;
10088;SDS011;51898;49.864;8.550;2022-09-11T03:28:01;20.27;;;16.53;;
10088;SDS011;51898;49.864;8.550;2022-09-11T03:31:04;21.13;;;17.27;;
10088;SDS011;51898;49.864;8.550;2022-09-11T03:34:07;21.30;;;17.97;;
10088;SDS011;51898;49.864;8.550;2022-09-11T03:37:10;21.60;;;17.70;;
10088;SDS011;51898;49.864;8.550;2022-09-11T03:40:12;25.80;;;19.03;;
10088;SDS011;51898;49.864;8.550;2022-09-11T03:43:13;25.77;;;20.07;;
10088;SDS011;51898;49.864;8.550;2022-09-11T03:46:16;24.90;;;18.93;;
10088;SDS011;51898;49.864;8.550;2022-09-11T03:49:21;27.07;;;20.00;;
10088;SDS011;51898;49.864;8.550;2022-09-11T03:52:22;25.73;;;19.17;;
10088;SDS011;51898;49.864;8.550;2022-09-11T03:55:24;30.53;;;18.70;;
10088;SDS011;51898;49.864;8.550;2022-09-11T03:58:25;25.43;;;19.50;;
10088;SDS011;51898;49.864;8.550;2022-09-11T04:01:27;28.63;;;19.37;;
10088;SDS011;51898;49.864;8.550;2022-09-11T04:04:29;23.83;;;19.10;;
10088;SDS011;51898;49.864;8.550;2022-09-11T04:07:31;26.30;;;20.60;;
10088;SDS011;51898;49.864;8.550;2022-09-11T04:10:34;23.43;;;18.40;;
10088;SDS011;51898;49.864;8.550;2022-09-11T04:13:37;24.43;;;18.73;;
10088;SDS011;51898;49.864;8.550;2022-09-11T04:16:39;24.57;;;19.80;;
10088;SDS011;51898;49.864;8.550;2022-09-11T04:19:41;24.17;;;19.67;;
10088;SDS011;51898;49.864;8.550;2022-09-11T04:22:43;28.00;;;19.60;;
10088;SDS011;51898;49.864;8.550;2022-09-11T04:25:45;28.00;;;19.60;;
10088;SDS011;51898;49.864;8.550;2022-09-11T04:28:47;25.77;;;20.43;;
10088;SDS011;51898;49.864;8.550;2022-09-11T04:31:49;24.57;;;18.77;;
10088;SDS011;51898;49.864;8.550;2022-09-11T04:34:51;22.07;;;18.30;;
10088;SDS011;51898;49.864;8.550;2022-09-11T04:37:54;27.27;;;20.47;;
10088;SDS011;51898;49.864;8.550;2022-09-11T04:40:58;32.50;;;22.57;;
10088;SDS011;51898;49.864;8.550;2022-09-11T04:44:01;28.30;;;21.17;;
10088;SDS011;51898;49.864;8.550;2022-09-11T04:47:05;28.73;;;20.87;;
10088;SDS011;51898;49.864;8.550;2022-09-11T04:50:07;29.87;;;21.40;;
10088;SDS011;51898;49.864;8.550;2022-09-11T04:53:09;25.63;;;19.20;;
10088;SDS011;51898;49.864;8.550;2022-09-11T04:56:10;24.50;;;18.57;;
10088;SDS011;51898;49.864;8.550;2022-09-11T04:59:15;27.37;;;18.60;;
10088;SDS011;51898;49.864;8.550;2022-09-11T05:02:18;28.67;;;21.07;;
10088;SDS011;51898;49.864;8.550;2022-09-11T05:05:21;29.70;;;21.67;;
10088;SDS011;51898;49.864;8.550;2022-09-11T05:08:23;28.80;;;20.80;;
10088;SDS011;51898;49.864;8.550;2022-09-11T05:11:26;30.30;;;21.90;;
10088;SDS011;51898;49.864;8.550;2022-09-11T05:14:30;26.17;;;20.10;;
10088;SDS011;51898;49.864;8.550;2022-09-11T05:17:32;28.87;;;21.20;;
10088;SDS011;51898;49.864;8.550;2022-09-11T05:20:34;25.80;;;20.07;;
10088;SDS011;51898;49.864;8.550;2022-09-11T05:23:36;28.70;;;20.80;;
10088;SDS011;51898;49.864;8.550;2022-09-11T05:26:37;31.93;;;22.10;;
10088;SDS011;51898;49.864;8.550;2022-09-11T05:29:39;28.00;;;20.63;;
10088;SDS011;51898;49.864;8.550;2022-09-11T05:32:41;29.17;;;20.60;;
10088;SDS011;51898;49.864;8.550;2022-09-11T05:35:43;24.53;;;18.70;;
10088;SDS011;51898;49.864;8.550;2022-09-11T05:38:46;28.20;;;21.13;;
10088;SDS011;51898;49.864;8.550;2022-09-11T05:41:52;28.07;;;20.97;;
10088;SDS011;51898;49.864;8.550;2022-09-11T05:44:55;35.47;;;21.17;;
10088;SDS011;51898;49.864;8.550;2022-09-11T05:47:56;31.60;;;21.43;;
10088;SDS011;51898;49.864;8.550;2022-09-11T05:50:59;30.07;;;21.17;;
10088;SDS011;51898;49.864;8.550;2022-09-11T05:54:02;26.33;;;19.73;;
10088;SDS011;51898;49.864;8.550;2022-09-11T05:57:04;27.97;;;20.93;;
10088;SDS011;51898;49.864;8.550;2022-09-11T06:00:08;29.03;;;19.53;;
10088;SDS011;51898;49.864;8.550;2022-09-11T06:03:11;24.90;;;19.10;;
10088;SDS011;51898;49.864;8.550;2022-09-11T06:06:18;27.33;;;19.33;;
10088;SDS011;51898;49.864;8.550;2022-09-11T06:09:21;27.67;;;20.07;;
10088;SDS011;51898;49.864;8.550;2022-09-11T06:12:23;22.50;;;18.40;;
10088;SDS011;51898;49.864;8.550;2022-09-11T06:15:26;24.97;;;17.23;;
10088;SDS011;51898;49.864;8.550;2022-09-11T06:18:46;24.80;;;19.00;;
10088;SDS011;51898;49.864;8.550;2022-09-11T06:21:49;23.43;;;19.10;;
10088;SDS011;51898;49.864;8.550;2022-09-11T06:24:51;25.23;;;18.60;;
10088;SDS011;51898;49.864;8.550;2022-09-11T06:27:53;26.53;;;20.43;;
10088;SDS011;51898;49.864;8.550;2022-09-11T06:30:55;20.43;;;17.37;;
10088;SDS011;51898;49.864;8.550;2022-09-11T06:33:58;21.87;;;17.00;;
10088;SDS011;51898;49.864;8.550;2022-09-11T06:37:00;23.33;;;18.27;;
10088;SDS011;51898;49.864;8.550;2022-09-11T06:40:02;20.73;;;17.37;;
10088;SDS011;51898;49.864;8.550;2022-09-11T06:43:04;19.83;;;16.60;;
10088;SDS011;51898;49.864;8.550;2022-09-11T06:46:07;20.10;;;16.37;;
10088;SDS011;51898;49.864;8.550;2022-09-11T06:49:12;18.00;;;16.10;;
10088;SDS011;51898;49.864;8.550;2022-09-11T06:52:14;18.00;;;15.43;;
10088;SDS011;51898;49.864;8.550;2022-09-11T06:55:16;19.40;;;15.50;;
10088;SDS011;51898;49.864;8.550;2022-09-11T06:58:17;17.30;;;15.40;;
10088;SDS011;51898;49.864;8.550;2022-09-11T07:01:20;17.47;;;15.23;;
10088;SDS011;51898;49.864;8.550;2022-09-11T07:04:23;18.90;;;15.60;;
10088;SDS011;51898;49.864;8.550;2022-09-11T07:07:24;18.60;;;15.60;;
10088;SDS011;51898;49.864;8.550;2022-09-11T07:10:26;18.13;;;15.87;;
10088;SDS011;51898;49.864;8.550;2022-09-11T07:13:28;17.23;;;14.67;;
10088;SDS011;51898;49.864;8.550;2022-09-11T07:16:35;21.13;;;15.90;;
10088;SDS011;51898;49.864;8.550;2022-09-11T07:19:37;19.63;;;15.93;;
10088;SDS011;51898;49.864;8.550;2022-09-11T07:22:39;19.13;;;14.20;;
10088;SDS011;51898;49.864;8.550;2022-09-11T07:25:41;20.77;;;16.20;;
10088;SDS011;51898;49.864;8.550;2022-09-11T07:28:43;22.37;;;16.77;;
10088;SDS011;51898;49.864;8.550;2022-09-11T07:31:45;21.57;;;16.77;;
10088;SDS011;51898;49.864;8.550;2022-09-11T07:34:47;22.13;;;17.03;;
10088;SDS011;51898;49.864;8.550;2022-09-11T07:37:49;19.00;;;16.43;;
10088;SDS011;51898;49.864;8.550;2022-09-11T07:40:52;19.23;;;16.87;;
10088;SDS011;51898;49.864;8.550;2022-09-11T07:43:55;18.60;;;15.13;;
10088;SDS011;51898;49.864;8.550;2022-09-11T07:47:00;17.50;;;13.30;;
10088;SDS011;51898;49.864;8.550;2022-09-11T07:50:02;17.97;;;15.43;;
10088;SDS011;51898;49.864;8.550;2022-09-11T07:53:03;18.50;;;15.30;;
10088;SDS011;51898;49.864;8.550;2022-09-11T07:56:09;19.17;;;16.10;;
10088;SDS011;51898;49.864;8.550;2022-09-11T07:59:16;17.47;;;14.10;;
10088;SDS011;51898;49.864;8.550;2022-09-11T08:02:18;16.00;;;13.03;;
10088;SDS011;51898;49.864;8.550;2022-09-11T08:05:22;19.47;;;13.60;;
10088;SDS011;51898;49.864;8.550;2022-09-11T08:08:24;18.70;;;14.10;;
10088;SDS011;51898;49.864;8.550;2022-09-11T08:11:29;17.03;;;13.90;;
10088;SDS011;51898;49.864;8.550;2022-09-11T08:14:34;20.93;;;16.60;;
10088;SDS011;51898;49.864;8.550;2022-09-11T08:17:36;18.53;;;15.13;;
10088;SDS011;51898;49.864;8.550;2022-09-11T08:20:38;21.17;;;16.33;;
10088;SDS011;51898;49.864;8.550;2022-09-11T08:23:41;22.20;;;16.23;;
10088;SDS011;51898;49.864;8.550;2022-09-11T08:26:44;21.30;;;17.50;;
10088;SDS011;51898;49.864;8.550;2022-09-11T08:29:49;22.03;;;18.97;;
10088;SDS011;51898;49.864;8.550;2022-09-11T08:32:51;21.30;;;16.40;;
10088;SDS011;51898;49.864;8.550;2022-09-11T08:35:52;21.00;;;16.77;;
10088;SDS011;51898;49.864;8.550;2022-09-11T08:38:54;23.07;;;17.37;;
10088;SDS011;51898;49.864;8.550;2022-09-11T08:42:05;23.73;;;16.70;;
10088;SDS011;51898;49.864;8.550;2022-09-11T08:45:15;22.17;;;17.50;;
10088;SDS011;51898;49.864;8.550;2022-09-11T08:48:20;19.63;;;15.63;;
10088;SDS011;51898;49.864;8.550;2022-09-11T08:51:37;21.67;;;15.20;;
10088;SDS011;51898;49.864;8.550;2022-09-11T08:54:40;25.30;;;18.87;;
10088;SDS011;51898;49.864;8.550;2022-09-11T08:57:52;24.77;;;17.63;;
10088;SDS011;51898;49.864;8.550;2022-09-11T09:01:08;20.90;;;17.20;;
10088;SDS011;51898;49.864;8.550;2022-09-11T09:04:30;25.17;;;18.00;;
10088;SDS011;51898;49.864;8.550;2022-09-11T09:11:18;21.97;;;16.60;;
10088;SDS011;51898;49.864;8.550;2022-09-11T09:17:47;22.73;;;18.00;;
10088;SDS011;51898;49.864;8.550;2022-09-11T09:21:05;25.10;;;18.30;;
10088;SDS011;51898;49.864;8.550;2022-09-11T09:24:28;24.20;;;17.40;;
10088;SDS011;51898;49.864;8.550;2022-09-11T09:27:37;25.63;;;19.03;;
10088;SDS011;51898;49.864;8.550;2022-09-11T09:30:52;25.07;;;17.50;;
10088;SDS011;51898;49.864;8.550;2022-09-11T09:34:06;25.03;;;17.57;;
10088;SDS011;51898;49.864;8.550;2022-09-11T09:37:21;22.23;;;17.40;;
10088;SDS011;51898;49.864;8.550;2022-09-11T09:40:23;19.70;;;15.43;;
10088;SDS011;51898;49.864;8.550;2022-09-11T09:43:31;20.00;;;15.77;;
10088;SDS011;51898;49.864;8.550;2022-09-11T09:46:39;83.60;;;55.73;;
10088;SDS011;51898;49.864;8.550;2022-09-11T09:49:50;57.77;;;38.57;;
10088;SDS011;51898;49.864;8.550;2022-09-11T09:52:53;30.77;;;21.13;;
10088;SDS011;51898;49.864;8.550;2022-09-11T09:56:03;25.47;;;17.23;;
10088;SDS011;51898;49.864;8.550;2022-09-11T09:59:13;25.23;;;18.90;;
10088;SDS011;51898;49.864;8.550;2022-09-11T10:05:41;28.50;;;20.90;;
10088;SDS011;51898;49.864;8.550;2022-09-11T10:08:45;29.77;;;21.67;;
10088;SDS011;51898;49.864;8.550;2022-09-11T10:11:50;28.37;;;21.90;;
10088;SDS011;51898;49.864;8.550;2022-09-11T10:15:02;27.43;;;19.17;;
10088;SDS011;51898;49.864;8.550;2022-09-11T10:21:33;28.00;;;19.93;;
10088;SDS011;51898;49.864;8.550;2022-09-11T10:24:36;29.60;;;21.30;;
10088;SDS011;51898;49.864;8.550;2022-09-11T10:27:39;32.80;;;19.47;;
10088;SDS011;51898;49.864;8.550;2022-09-11T10:30:54;24.33;;;19.80;;
10088;SDS011;51898;49.864;8.550;2022-09-11T10:34:03;27.20;;;19.73;;
10088;SDS011;51898;49.864;8.550;2022-09-11T10:37:07;26.67;;;18.13;;
10088;SDS011;51898;49.864;8.550;2022-09-11T10:41:04;23.43;;;17.40;;
10088;SDS011;51898;49.864;8.550;2022-09-11T10:44:13;30.87;;;19.10;;
10088;SDS011;51898;49.864;8.550;2022-09-11T10:50:25;21.10;;;16.83;;
10088;SDS011;51898;49.864;8.550;2022-09-11T10:53:27;18.47;;;15.80;;
10088;SDS011;51898;49.864;8.550;2022-09-11T10:56:34;20.03;;;15.93;;
10088;SDS011;51898;49.864;8.550;2022-09-11T11:03:03;18.20;;;15.60;;
10088;SDS011;51898;49.864;8.550;2022-09-11T11:06:23;21.63;;;15.47;;
10088;SDS011;51898;49.864;8.550;2022-09-11T11:09:52;17.90;;;14.90;;
10088;SDS011;51898;49.864;8.550;2022-09-11T11:30:48;13.30;;;11.90;;
10088;SDS011;51898;49.864;8.550;2022-09-11T11:37:35;12.47;;;11.17;;
10088;SDS011;51898;49.864;8.550;2022-09-11T11:40:42;11.63;;;10.37;;
10088;SDS011;51898;49.864;8.550;2022-09-11T11:44:08;13.83;;;9.63;;
10088;SDS011;51898;49.864;8.550;2022-09-11T11:47:16;16.23;;;10.13;;
10088;SDS011;51898;49.864;8.550;2022-09-11T11:50:27;11.77;;;9.93;;
10088;SDS011;51898;49.864;8.550;2022-09-11T11:53:41;11.23;;;9.73;;
10088;SDS011;51898;49.864;8.550;2022-09-11T11:56:55;14.90;;;9.43;;
10088;SDS011;51898;49.864;8.550;2022-09-11T12:00:06;10.40;;;8.77;;
10088;SDS011;51898;49.864;8.550;2022-09-11T12:03:21;10.77;;;9.50;;
10088;SDS011;51898;49.864;8.550;2022-09-11T12:06:33;9.80;;;8.80;;
10088;SDS011;51898;49.864;8.550;2022-09-11T12:09:35;8.63;;;7.73;;
10088;SDS011;51898;49.864;8.550;2022-09-11T12:12:43;11.90;;;9.83;;
10088;SDS011;51898;49.864;8.550;2022-09-11T12:15:56;12.33;;;9.17;;
10088;SDS011;51898;49.864;8.550;2022-09-11T12:19:04;14.10;;;10.17;;
10088;SDS011;51898;49.864;8.550;2022-09-11T12:22:31;13.00;;;10.80;;
10088;SDS011;51898;49.864;8.550;2022-09-11T12:28:36;9.60;;;8.70;;
10088;SDS011;51898;49.864;8.550;2022-09-11T12:32:16;10.93;;;9.03;;
10088;SDS011;51898;49.864;8.550;2022-09-11T12:35:22;9.87;;;8.70;;
10088;SDS011;51898;49.864;8.550;2022-09-11T12:38:47;10.97;;;8.40;;
10088;SDS011;51898;49.864;8.550;2022-09-11T12:42:25;10.63;;;9.10;;
10088;SDS011;51898;49.864;8.550;2022-09-11T12:45:30;9.03;;;8.23;;
10088;SDS011;51898;49.864;8.550;2022-09-11T12:48:43;10.37;;;7.97;;
10088;SDS011;51898;49.864;8.550;2022-09-11T12:52:17;10.07;;;8.77;;
10088;SDS011;51898;49.864;8.550;2022-09-11T12:58:54;11.27;;;8.03;;
10088;SDS011;51898;49.864;8.550;2022-09-11T13:01:59;15.43;;;9.70;;
10088;SDS011;51898;49.864;8.550;2022-09-11T13:05:02;12.03;;;10.20;;
10088;SDS011;51898;49.864;8.550;2022-09-11T13:08:12;11.10;;;9.10;;
10088;SDS011;51898;49.864;8.550;2022-09-11T13:14:49;9.80;;;8.43;;
10088;SDS011;51898;49.864;8.550;2022-09-11T13:17:57;11.53;;;9.70;;
10088;SDS011;51898;49.864;8.550;2022-09-11T13:21:00;10.90;;;9.23;;
10088;SDS011;51898;49.864;8.550;2022-09-11T13:24:32;10.53;;;8.90;;
10088;SDS011;51898;49.864;8.550;2022-09-11T13:27:34;8.53;;;7.63;;
10088;SDS011;51898;49.864;8.550;2022-09-11T13:30:37;7.83;;;6.97;;
10088;SDS011;51898;49.864;8.550;2022-09-11T13:33:52;10.67;;;8.00;;
10088;SDS011;51898;49.864;8.550;2022-09-11T13:36:55;8.70;;;7.80;;
10088;SDS011;51898;49.864;8.550;2022-09-11T13:39:58;9.90;;;7.83;;
10088;SDS011;51898;49.864;8.550;2022-09-11T13:43:00;9.53;;;7.73;;
10088;SDS011;51898;49.864;8.550;2022-09-11T13:49:23;9.13;;;8.23;;
10088;SDS011;51898;49.864;8.550;2022-09-11T13:52:35;8.20;;;7.40;;
10088;SDS011;51898;49.864;8.550;2022-09-11T13:55:37;9.50;;;7.53;;
10088;SDS011;51898;49.864;8.550;2022-09-11T13:58:38;15.47;;;8.80;;
10088;SDS011;51898;49.864;8.550;2022-09-11T14:01:49;8.50;;;7.60;;
10088;SDS011;51898;49.864;8.550;2022-09-11T14:08:28;7.60;;;6.90;;
10088;SDS011;51898;49.864;8.550;2022-09-11T14:11:35;7.43;;;6.77;;
10088;SDS011;51898;49.864;8.550;2022-09-11T14:14:37;10.43;;;7.73;;
10088;SDS011;51898;49.864;8.550;2022-09-11T14:17:39;9.37;;;7.53;;
10088;SDS011;51898;49.864;8.550;2022-09-11T14:20:42;7.83;;;7.13;;
10088;SDS011;51898;49.864;8.550;2022-09-11T14:23:48;9.47;;;8.13;;
10088;SDS011;51898;49.864;8.550;2022-09-11T14:26:52;9.20;;;8.33;;
10088;SDS011;51898;49.864;8.550;2022-09-11T14:29:55;7.47;;;6.77;;
10088;SDS011;51898;49.864;8.550;2022-09-11T14:33:17;8.77;;;7.87;;
10088;SDS011;51898;49.864;8.550;2022-09-11T14:36:23;9.73;;;8.60;;
10088;SDS011;51898;49.864;8.550;2022-09-11T14:42:30;8.63;;;7.73;;
10088;SDS011;51898;49.864;8.550;2022-09-11T14:45:33;9.93;;;8.43;;
10088;SDS011;51898;49.864;8.550;2022-09-11T14:48:35;7.80;;;7.00;;
10088;SDS011;51898;49.864;8.550;2022-09-11T14:51:37;8.40;;;7.50;;
10088;SDS011;51898;49.864;8.550;2022-09-11T14:54:41;8.60;;;7.70;;
10088;SDS011;51898;49.864;8.550;2022-09-11T14:57:43;7.67;;;6.97;;
10088;SDS011;51898;49.864;8.550;2022-09-11T15:00:48;11.47;;;7.93;;
10088;SDS011;51898;49.864;8.550;2022-09-11T15:03:49;8.10;;;7.40;;
10088;SDS011;51898;49.864;8.550;2022-09-11T15:06:52;7.20;;;6.50;;
10088;SDS011;51898;49.864;8.550;2022-09-11T15:09:55;8.07;;;6.97;;
10088;SDS011;51898;49.864;8.550;2022-09-11T15:12:57;7.50;;;6.70;;
10088;SDS011;51898;49.864;8.550;2022-09-11T15:15:59;8.20;;;6.73;;
10088;SDS011;51898;49.864;8.550;2022-09-11T15:19:01;7.23;;;6.60;;
10088;SDS011;51898;49.864;8.550;2022-09-11T15:22:03;10.53;;;6.80;;
10088;SDS011;51898;49.864;8.550;2022-09-11T15:25:05;8.13;;;7.30;;
10088;SDS011;51898;49.864;8.550;2022-09-11T15:28:08;7.27;;;6.60;;
10088;SDS011;51898;49.864;8.550;2022-09-11T15:31:12;7.47;;;6.77;;
10088;SDS011;51898;49.864;8.550;2022-09-11T15:34:15;7.10;;;6.50;;
10088;SDS011;51898;49.864;8.550;2022-09-11T15:37:18;7.50;;;6.90;;
10088;SDS011;51898;49.864;8.550;2022-09-11T15:40:20;6.80;;;6.20;;
10088;SDS011;51898;49.864;8.550;2022-09-11T15:43:35;6.93;;;6.20;;
10088;SDS011;51898;49.864;8.550;2022-09-11T15:46:39;6.57;;;6.07;;
10088;SDS011;51898;49.864;8.550;2022-09-11T15:49:41;6.50;;;6.00;;
10088;SDS011;51898;49.864;8.550;2022-09-11T15:52:48;8.33;;;7.07;;
10088;SDS011;51898;49.864;8.550;2022-09-11T15:55:59;7.00;;;6.50;;
10088;SDS011;51898;49.864;8.550;2022-09-11T15:59:03;7.23;;;6.10;;
10088;SDS011;51898;49.864;8.550;2022-09-11T16:02:06;6.50;;;6.00;;
10088;SDS011;51898;49.864;8.550;2022-09-11T16:05:09;6.63;;;5.80;;
10088;SDS011;51898;49.864;8.550;2022-09-11T16:08:10;7.03;;;6.37;;
10088;SDS011;51898;49.864;8.550;2022-09-11T16:11:13;6.73;;;6.17;;
10088;SDS011;51898;49.864;8.550;2022-09-11T16:17:24;8.97;;;6.70;;
10088;SDS011;51898;49.864;8.550;2022-09-11T16:20:31;9.17;;;6.63;;
10088;SDS011;51898;49.864;8.550;2022-09-11T16:23:34;8.00;;;7.03;;
10088;SDS011;51898;49.864;8.550;2022-09-11T16:26:36;7.90;;;6.30;;
10088;SDS011;51898;49.864;8.550;2022-09-11T16:29:41;6.87;;;6.37;;
10088;SDS011;51898;49.864;8.550;2022-09-11T16:33:04;8.80;;;6.20;;
10088;SDS011;51898;49.864;8.550;2022-09-11T16:36:09;7.37;;;6.57;;
10088;SDS011;51898;49.864;8.550;2022-09-11T16:39:17;9.07;;;7.10;;
10088;SDS011;51898;49.864;8.550;2022-09-11T16:42:19;7.23;;;6.53;;
10088;SDS011;51898;49.864;8.550;2022-09-11T16:45:22;6.17;;;5.67;;
10088;SDS011;51898;49.864;8.550;2022-09-11T16:48:24;6.90;;;6.40;;
10088;SDS011;51898;49.864;8.550;2022-09-11T16:51:26;7.50;;;7.00;;
10088;SDS011;51898;49.864;8.550;2022-09-11T16:54:29;7.67;;;7.07;;
10088;SDS011;51898;49.864;8.550;2022-09-11T16:57:31;7.85;;;6.90;;
10088;SDS011;51898;49.864;8.550;2022-09-11T17:00:33;7.80;;;7.20;;
10088;SDS011;51898;49.864;8.550;2022-09-11T17:03:36;7.15;;;6.55;;
10088;SDS011;51898;49.864;8.550;2022-09-11T17:06:41;7.05;;;6.22;;
10088;SDS011;51898;49.864;8.550;2022-09-11T17:09:43;6.97;;;6.38;;
10088;SDS011;51898;49.864;8.550;2022-09-11T17:12:46;8.27;;;7.47;;
10088;SDS011;51898;49.864;8.550;2022-09-11T17:15:48;8.23;;;7.53;;
10088;SDS011;51898;49.864;8.550;2022-09-11T17:18:51;8.60;;;7.90;;
10088;SDS011;51898;49.864;8.550;2022-09-11T17:21:54;8.73;;;7.93;;
10088;SDS011;51898;49.864;8.550;2022-09-11T17:24:55;8.40;;;7.37;;
10088;SDS011;51898;49.864;8.550;2022-09-11T17:27:57;9.37;;;8.47;;
10088;SDS011;51898;49.864;8.550;2022-09-11T17:30:59;8.93;;;8.03;;
10088;SDS011;51898;49.864;8.550;2022-09-11T17:34:02;10.23;;;8.50;;
10088;SDS011;51898;49.864;8.550;2022-09-11T17:37:04;11.13;;;8.87;;
10088;SDS011;51898;49.864;8.550;2022-09-11T17:40:06;9.27;;;8.47;;
10088;SDS011;51898;49.864;8.550;2022-09-11T17:43:09;11.27;;;8.03;;
10088;SDS011;51898;49.864;8.550;2022-09-11T17:46:14;9.23;;;8.23;;
10088;SDS011;51898;49.864;8.550;2022-09-11T17:49:17;8.83;;;7.93;;
10088;SDS011;51898;49.864;8.550;2022-09-11T17:52:19;12.20;;;9.70;;
10088;SDS011;51898;49.864;8.550;2022-09-11T17:55:20;10.10;;;8.60;;
10088;SDS011;51898;49.864;8.550;2022-09-11T17:58:22;10.10;;;8.43;;
10088;SDS011;51898;49.864;8.550;2022-09-11T18:01:24;9.00;;;7.57;;
10088;SDS011;51898;49.864;8.550;2022-09-11T18:04:28;9.50;;;7.90;;
10088;SDS011;51898;49.864;8.550;2022-09-11T18:07:29;9.50;;;8.07;;
10088;SDS011;51898;49.864;8.550;2022-09-11T18:10:32;10.47;;;8.03;;
10088;SDS011;51898;49.864;8.550;2022-09-11T18:13:34;15.90;;;9.00;;
10088;SDS011;51898;49.864;8.550;2022-09-11T18:16:35;10.27;;;8.20;;
10088;SDS011;51898;49.864;8.550;2022-09-11T18:19:37;11.33;;;9.17;;
10088;SDS011;51898;49.864;8.550;2022-09-11T18:22:39;10.40;;;9.30;;
10088;SDS011;51898;49.864;8.550;2022-09-11T18:25:42;11.00;;;8.67;;
10088;SDS011;51898;49.864;8.550;2022-09-11T18:28:44;10.10;;;8.80;;
10088;SDS011;51898;49.864;8.550;2022-09-11T18:31:46;11.63;;;10.43;;
10088;SDS011;51898;49.864;8.550;2022-09-11T18:34:50;11.13;;;9.73;;
10088;SDS011;51898;49.864;8.550;2022-09-11T18:37:52;12.03;;;9.30;;
10088;SDS011;51898;49.864;8.550;2022-09-11T18:40:54;9.67;;;8.53;;
10088;SDS011;51898;49.864;8.550;2022-09-11T18:44:01;12.10;;;9.40;;
10088;SDS011;51898;49.864;8.550;2022-09-11T18:47:04;11.17;;;9.20;;
10088;SDS011;51898;49.864;8.550;2022-09-11T18:50:06;15.07;;;9.20;;
10088;SDS011;51898;49.864;8.550;2022-09-11T18:53:09;19.70;;;11.60;;
10088;SDS011;51898;49.864;8.550;2022-09-11T18:56:10;14.07;;;11.00;;
10088;SDS011;51898;49.864;8.550;2022-09-11T18:59:12;12.80;;;9.87;;
10088;SDS011;51898;49.864;8.550;2022-09-11T19:02:15;17.63;;;11.00;;
10088;SDS011;51898;49.864;8.550;2022-09-11T19:05:16;17.53;;;11.63;;
10088;SDS011;51898;49.864;8.550;2022-09-11T19:08:18;11.33;;;9.93;;
10088;SDS011;51898;49.864;8.550;2022-09-11T19:11:21;13.40;;;10.10;;
10088;SDS011;51898;49.864;8.550;2022-09-11T19:14:25;11.50;;;9.53;;
10088;SDS011;51898;49.864;8.550;2022-09-11T19:17:27;13.00;;;9.20;;
10088;SDS011;51898;49.864;8.550;2022-09-11T19:20:29;10.80;;;9.80;;
10088;SDS011;51898;49.864;8.550;2022-09-11T19:23:34;12.07;;;10.07;;
10088;SDS011;51898;49.864;8.550;2022-09-11T19:26:38;13.07;;;10.47;;
10088;SDS011;51898;49.864;8.550;2022-09-11T19:29:42;15.33;;;11.57;;
10088;SDS011;51898;49.864;8.550;2022-09-11T19:32:44;15.20;;;10.93;;
10088;SDS011;51898;49.864;8.550;2022-09-11T19:35:52;11.97;;;10.40;;
10088;SDS011;51898;49.864;8.550;2022-09-11T19:39:00;14.57;;;11.30;;
10088;SDS011;51898;49.864;8.550;2022-09-11T19:42:03;13.80;;;11.80;;